createdAt,value
2018-07-22T00:00:39.717Z,22.59
2018-07-22T00:01:20.263Z,22.55
2018-07-22T00:02:00.826Z,22.6
2018-07-22T00:02:41.406Z,22.63
2018-07-22T00:03:21.967Z,22.59
2018-07-22T00:04:02.529Z,22.57
2018-07-22T00:04:43.095Z,22.62
2018-07-22T00:05:23.659Z,22.68
2018-07-22T00:06:04.262Z,22.59
2018-07-22T00:06:44.796Z,22.6
2018-07-22T00:07:25.383Z,22.54
2018-07-22T00:08:05.935Z,22.59
2018-07-22T00:08:46.500Z,22.57
2018-07-22T00:09:27.074Z,22.6
2018-07-22T00:10:07.631Z,22.57
2018-07-22T00:10:48.195Z,22.57
2018-07-22T00:11:28.761Z,22.59
2018-07-22T00:12:09.308Z,22.62
2018-07-22T00:12:49.867Z,22.55
2018-07-22T00:13:30.482Z,22.59
2018-07-22T00:14:11.147Z,22.57
2018-07-22T00:14:51.645Z,22.59
2018-07-22T00:15:32.222Z,22.59
2018-07-22T00:16:12.781Z,22.57
2018-07-22T00:16:53.380Z,22.53
2018-07-22T00:17:33.948Z,22.51
2018-07-22T00:18:14.527Z,22.51
2018-07-22T00:18:55.096Z,22.5
2018-07-22T00:19:35.654Z,22.53
2018-07-22T00:20:16.215Z,22.53
2018-07-22T00:20:56.769Z,22.47
2018-07-22T00:21:37.390Z,22.48
2018-07-22T00:22:17.901Z,22.5
2018-07-22T00:22:58.551Z,22.44
2018-07-22T00:23:39.057Z,22.36
2018-07-22T00:24:19.607Z,22.36
2018-07-22T00:25:00.191Z,22.48
2018-07-22T00:25:40.760Z,22.41
2018-07-22T00:26:21.334Z,22.38
2018-07-22T00:27:01.914Z,22.35
2018-07-22T00:27:42.463Z,22.41
2018-07-22T00:28:23.034Z,22.35
2018-07-22T00:29:03.616Z,22.33
2018-07-22T00:29:44.201Z,22.29
2018-07-22T00:30:24.763Z,22.35
2018-07-22T00:31:05.327Z,22.38
2018-07-22T00:31:45.889Z,22.35
2018-07-22T00:32:26.506Z,22.38
2018-07-22T00:33:07.084Z,22.39
2018-07-22T00:33:47.653Z,22.38
2018-07-22T00:34:28.273Z,22.36
2018-07-22T00:35:08.834Z,22.25
2018-07-22T00:35:49.425Z,22.41
2018-07-22T00:36:29.991Z,22.33
2018-07-22T00:37:10.552Z,22.38
2018-07-22T00:37:51.121Z,22.41
2018-07-22T00:38:31.686Z,22.32
2018-07-22T00:39:12.256Z,22.35
2018-07-22T00:39:52.833Z,22.36
2018-07-22T00:40:33.403Z,22.25
2018-07-22T00:41:13.970Z,22.29
2018-07-22T00:41:54.543Z,22.29
2018-07-22T00:42:35.082Z,22.36
2018-07-22T00:43:15.633Z,22.32
2018-07-22T00:43:56.229Z,22.33
2018-07-22T00:44:36.790Z,22.35
2018-07-22T00:45:17.361Z,22.25
2018-07-22T00:45:57.923Z,22.38
2018-07-22T00:46:38.487Z,22.33
2018-07-22T00:47:19.058Z,22.36
2018-07-22T00:47:59.613Z,22.28
2018-07-22T00:48:40.207Z,22.28
2018-07-22T00:49:20.779Z,22.29
2018-07-22T00:50:01.328Z,22.26
2018-07-22T00:50:41.902Z,22.28
2018-07-22T00:51:22.462Z,22.28
2018-07-22T00:52:03.015Z,22.28
2018-07-22T00:52:43.568Z,22.22
2018-07-22T00:53:24.147Z,22.25
2018-07-22T00:54:04.728Z,22.2
2018-07-22T00:54:45.282Z,22.17
2018-07-22T00:55:25.850Z,22.15
2018-07-22T00:56:06.401Z,22.18
2018-07-22T00:56:46.969Z,22.13
2018-07-22T00:57:27.524Z,22.17
2018-07-22T00:58:08.084Z,22.18
2018-07-22T00:58:48.648Z,22.22
2018-07-22T00:59:29.226Z,22.1
2018-07-22T01:00:09.877Z,22.22
2018-07-22T01:00:50.379Z,22.14
2018-07-22T01:01:30.976Z,22.11
2018-07-22T01:02:11.549Z,22.13
2018-07-22T01:02:52.124Z,22.18
2018-07-22T01:03:32.685Z,22.14
2018-07-22T01:04:13.283Z,22.23
2018-07-22T01:04:53.897Z,22.08
2018-07-22T01:05:34.468Z,22.2
2018-07-22T01:06:15.029Z,22.14
2018-07-22T01:06:55.595Z,22.08
2018-07-22T01:07:36.158Z,22.14
2018-07-22T01:08:16.719Z,22.1
2018-07-22T01:08:57.283Z,22.14
2018-07-22T01:09:37.886Z,22.13
2018-07-22T01:10:18.458Z,22.14
2018-07-22T01:10:59.009Z,22.15
2018-07-22T01:11:39.570Z,22.13
2018-07-22T01:12:20.136Z,22.02
2018-07-22T01:13:00.709Z,22.04
2018-07-22T01:13:41.287Z,22.08
2018-07-22T01:14:21.922Z,22.1
2018-07-22T01:15:02.512Z,22.11
2018-07-22T01:15:43.080Z,22.11
2018-07-22T01:16:23.648Z,22.14
2018-07-22T01:17:04.210Z,22.14
2018-07-22T01:17:44.778Z,22.06
2018-07-22T01:18:25.341Z,22.07
2018-07-22T01:19:05.902Z,22.1
2018-07-22T01:19:46.471Z,21.99
2018-07-22T01:20:27.096Z,22.1
2018-07-22T01:21:07.689Z,22.06
2018-07-22T01:21:48.251Z,22.07
2018-07-22T01:22:28.829Z,22
2018-07-22T01:23:09.398Z,21.96
2018-07-22T01:23:49.980Z,21.96
2018-07-22T01:24:30.536Z,22.11
2018-07-22T01:25:11.109Z,22.02
2018-07-22T01:25:51.752Z,22.04
2018-07-22T01:26:32.305Z,22.06
2018-07-22T01:27:12.874Z,22
2018-07-22T01:27:53.461Z,22.06
2018-07-22T01:28:34.037Z,22.04
2018-07-22T01:29:14.598Z,21.96
2018-07-22T01:29:55.166Z,22.04
2018-07-22T01:30:35.710Z,21.92
2018-07-22T01:31:16.280Z,21.95
2018-07-22T01:31:56.838Z,21.88
2018-07-22T01:32:37.369Z,21.91
2018-07-22T01:33:17.939Z,21.95
2018-07-22T01:33:58.507Z,21.95
2018-07-22T01:34:39.093Z,21.98
2018-07-22T01:35:19.647Z,21.93
2018-07-22T01:36:00.214Z,21.91
2018-07-22T01:36:40.772Z,21.95
2018-07-22T01:37:21.357Z,21.91
2018-07-22T01:38:01.927Z,21.92
2018-07-22T01:38:42.500Z,21.82
2018-07-22T01:39:23.085Z,21.85
2018-07-22T01:40:03.702Z,21.95
2018-07-22T01:40:44.288Z,21.82
2018-07-22T01:41:24.854Z,21.91
2018-07-22T01:42:05.418Z,21.82
2018-07-22T01:42:45.982Z,21.95
2018-07-22T01:43:26.555Z,21.92
2018-07-22T01:44:07.117Z,21.82
2018-07-22T01:44:47.684Z,21.93
2018-07-22T01:45:28.309Z,21.83
2018-07-22T01:46:08.871Z,21.89
2018-07-22T01:46:49.427Z,21.8
2018-07-22T01:47:29.999Z,21.89
2018-07-22T01:48:10.567Z,21.77
2018-07-22T01:48:51.139Z,21.83
2018-07-22T01:49:31.713Z,21.85
2018-07-22T01:50:12.282Z,21.83
2018-07-22T01:50:52.858Z,21.82
2018-07-22T01:51:33.432Z,21.82
2018-07-22T01:52:13.995Z,21.85
2018-07-22T01:52:54.593Z,21.82
2018-07-22T01:53:35.149Z,21.83
2018-07-22T01:54:15.699Z,21.7
2018-07-22T01:54:56.268Z,21.72
2018-07-22T01:55:36.838Z,21.79
2018-07-22T01:56:17.405Z,21.72
2018-07-22T01:56:58.062Z,21.76
2018-07-22T01:57:38.612Z,21.79
2018-07-22T01:58:19.172Z,21.67
2018-07-22T01:58:59.737Z,21.66
2018-07-22T01:59:40.298Z,21.79
2018-07-22T02:00:20.860Z,21.67
2018-07-22T02:01:01.421Z,21.69
2018-07-22T02:01:42.059Z,21.73
2018-07-22T02:02:22.556Z,21.75
2018-07-22T02:03:03.125Z,21.66
2018-07-22T02:03:43.696Z,21.69
2018-07-22T02:04:24.256Z,21.72
2018-07-22T02:05:04.807Z,21.64
2018-07-22T02:05:45.368Z,21.75
2018-07-22T02:06:25.944Z,21.7
2018-07-22T02:07:06.497Z,21.6
2018-07-22T02:07:47.055Z,21.57
2018-07-22T02:08:27.635Z,21.66
2018-07-22T02:09:08.192Z,21.64
2018-07-22T02:09:48.761Z,21.48
2018-07-22T02:10:29.310Z,21.66
2018-07-22T02:11:09.868Z,21.6
2018-07-22T02:11:50.441Z,21.61
2018-07-22T02:12:30.992Z,21.52
2018-07-22T02:13:11.547Z,21.55
2018-07-22T02:13:52.120Z,21.54
2018-07-22T02:14:32.701Z,21.54
2018-07-22T02:15:13.263Z,21.51
2018-07-22T02:15:53.822Z,21.48
2018-07-22T02:16:34.390Z,21.57
2018-07-22T02:17:14.986Z,21.48
2018-07-22T02:17:55.537Z,21.43
2018-07-22T02:18:36.114Z,21.54
2018-07-22T02:19:16.682Z,21.42
2018-07-22T02:19:57.247Z,21.51
2018-07-22T02:20:37.813Z,21.42
2018-07-22T02:21:18.378Z,21.5
2018-07-22T02:21:58.948Z,21.43
2018-07-22T02:22:39.536Z,21.5
2018-07-22T02:23:20.093Z,21.46
2018-07-22T02:24:00.643Z,21.48
2018-07-22T02:24:41.219Z,21.51
2018-07-22T02:25:21.794Z,21.5
2018-07-22T02:26:02.345Z,21.4
2018-07-22T02:26:42.919Z,21.45
2018-07-22T02:27:23.477Z,21.39
2018-07-22T02:28:04.042Z,21.35
2018-07-22T02:28:44.600Z,21.39
2018-07-22T02:29:25.147Z,21.35
2018-07-22T02:30:05.697Z,21.36
2018-07-22T02:30:46.301Z,21.35
2018-07-22T02:31:26.804Z,21.3
2018-07-22T02:32:07.354Z,21.3
2018-07-22T02:32:47.947Z,21.29
2018-07-22T02:33:28.505Z,21.37
2018-07-22T02:34:09.080Z,21.33
2018-07-22T02:34:49.643Z,21.42
2018-07-22T02:35:30.208Z,21.21
2018-07-22T02:36:10.768Z,21.29
2018-07-22T02:36:51.314Z,21.32
2018-07-22T02:37:31.886Z,21.25
2018-07-22T02:38:12.471Z,21.27
2018-07-22T02:38:53.032Z,21.2
2018-07-22T02:39:33.602Z,21.27
2018-07-22T02:40:14.165Z,21.22
2018-07-22T02:40:54.739Z,21.2
2018-07-22T02:41:35.297Z,21.25
2018-07-22T02:42:15.864Z,21.25
2018-07-22T02:42:56.437Z,21.2
2018-07-22T02:43:36.996Z,21.21
2018-07-22T02:44:17.565Z,21.17
2018-07-22T02:44:58.121Z,21.15
2018-07-22T02:45:38.682Z,21.2
2018-07-22T02:46:19.305Z,21.14
2018-07-22T02:46:59.868Z,21.2
2018-07-22T02:47:40.477Z,21.2
2018-07-22T02:48:20.998Z,21.2
2018-07-22T02:49:01.577Z,21.15
2018-07-22T02:49:42.148Z,21.15
2018-07-22T02:50:22.725Z,21.15
2018-07-22T02:51:03.282Z,21.14
2018-07-22T02:51:43.844Z,21.2
2018-07-22T02:52:24.411Z,21.15
2018-07-22T02:53:04.984Z,21.09
2018-07-22T02:53:45.557Z,21.15
2018-07-22T02:54:26.129Z,21.24
2018-07-22T02:55:06.846Z,21.09
2018-07-22T02:55:47.515Z,21.12
2018-07-22T02:56:28.088Z,21.09
2018-07-22T02:57:08.650Z,21.12
2018-07-22T02:57:49.215Z,21.12
2018-07-22T02:58:29.785Z,21.14
2018-07-22T02:59:10.360Z,21.09
2018-07-22T02:59:50.931Z,21.09
2018-07-22T03:00:31.557Z,21.12
2018-07-22T03:01:12.123Z,21.11
2018-07-22T03:01:52.697Z,21.05
2018-07-22T03:02:33.255Z,21.03
2018-07-22T03:03:13.847Z,21.12
2018-07-22T03:03:54.376Z,21.06
2018-07-22T03:04:34.939Z,21.05
2018-07-22T03:05:15.508Z,21.09
2018-07-22T03:05:56.071Z,21.14
2018-07-22T03:06:36.638Z,21.14
2018-07-22T03:07:17.180Z,21.05
2018-07-22T03:07:57.755Z,21.02
2018-07-22T03:08:38.311Z,21.06
2018-07-22T03:09:18.871Z,21.03
2018-07-22T03:09:59.436Z,21.09
2018-07-22T03:10:39.999Z,21.06
2018-07-22T03:11:20.588Z,21.09
2018-07-22T03:12:01.168Z,21.02
2018-07-22T03:12:41.757Z,21.03
2018-07-22T03:13:22.330Z,21.07
2018-07-22T03:14:02.894Z,21.15
2018-07-22T03:14:43.467Z,21.05
2018-07-22T03:15:24.035Z,21.09
2018-07-22T03:16:04.607Z,21.05
2018-07-22T03:16:45.172Z,21.09
2018-07-22T03:17:25.733Z,21.11
2018-07-22T03:18:06.307Z,21.03
2018-07-22T03:18:46.873Z,21.07
2018-07-22T03:19:27.438Z,21
2018-07-22T03:20:07.998Z,21.02
2018-07-22T03:20:48.576Z,21.05
2018-07-22T03:21:29.154Z,21.07
2018-07-22T03:22:09.721Z,21.05
2018-07-22T03:22:50.296Z,21.07
2018-07-22T03:23:30.858Z,21.09
2018-07-22T03:24:11.416Z,21.02
2018-07-22T03:24:51.995Z,21.06
2018-07-22T03:25:32.557Z,21.02
2018-07-22T03:26:13.109Z,21.11
2018-07-22T03:26:53.675Z,21.09
2018-07-22T03:27:34.241Z,21.07
2018-07-22T03:28:14.799Z,21.03
2018-07-22T03:28:55.389Z,21.02
2018-07-22T03:29:35.980Z,21.06
2018-07-22T03:30:16.544Z,21.03
2018-07-22T03:30:57.118Z,21.05
2018-07-22T03:31:37.679Z,20.96
2018-07-22T03:32:18.248Z,21.09
2018-07-22T03:32:58.820Z,21.03
2018-07-22T03:33:39.396Z,21
2018-07-22T03:34:19.953Z,20.95
2018-07-22T03:35:00.526Z,20.97
2018-07-22T03:35:41.104Z,21.07
2018-07-22T03:36:21.676Z,20.95
2018-07-22T03:37:02.615Z,21.07
2018-07-22T03:37:43.201Z,21.06
2018-07-22T03:38:23.765Z,20.92
2018-07-22T03:39:04.318Z,20.96
2018-07-22T03:39:44.883Z,21
2018-07-22T03:40:25.458Z,20.9
2018-07-22T03:41:06.019Z,20.9
2018-07-22T03:41:46.592Z,20.93
2018-07-22T03:42:27.157Z,20.96
2018-07-22T03:43:07.718Z,21.02
2018-07-22T03:43:48.272Z,20.9
2018-07-22T03:44:28.853Z,21.03
2018-07-22T03:45:09.420Z,20.96
2018-07-22T03:45:49.996Z,20.99
2018-07-22T03:46:30.559Z,20.99
2018-07-22T03:47:11.133Z,21.03
2018-07-22T03:47:51.713Z,21.09
2018-07-22T03:48:32.277Z,20.95
2018-07-22T03:49:12.842Z,21.09
2018-07-22T03:49:53.440Z,20.96
2018-07-22T03:50:34.009Z,21.03
2018-07-22T03:51:14.569Z,21.06
2018-07-22T03:51:55.128Z,21.03
2018-07-22T03:52:35.700Z,21.03
2018-07-22T03:53:16.233Z,21.03
2018-07-22T03:53:56.787Z,20.97
2018-07-22T03:54:37.365Z,20.99
2018-07-22T03:55:17.916Z,21.03
2018-07-22T03:55:58.506Z,21.09
2018-07-22T03:56:39.070Z,21.03
2018-07-22T03:57:19.658Z,21.02
2018-07-22T03:58:00.225Z,20.99
2018-07-22T03:58:40.801Z,21.14
2018-07-22T03:59:21.367Z,21.03
2018-07-22T04:00:01.939Z,21.14
2018-07-22T04:00:42.518Z,21.03
2018-07-22T04:01:23.084Z,21.07
2018-07-22T04:02:03.653Z,21.11
2018-07-22T04:02:44.216Z,21.07
2018-07-22T04:03:24.777Z,21.09
2018-07-22T04:04:05.343Z,21.11
2018-07-22T04:04:45.904Z,21.05
2018-07-22T04:05:26.473Z,21.03
2018-07-22T04:06:07.043Z,21.11
2018-07-22T04:06:47.614Z,21.12
2018-07-22T04:07:28.183Z,21.02
2018-07-22T04:08:08.751Z,21.02
2018-07-22T04:08:49.342Z,21.12
2018-07-22T04:09:29.898Z,21
2018-07-22T04:10:10.456Z,21
2018-07-22T04:10:51.014Z,21.07
2018-07-22T04:11:31.583Z,21.12
2018-07-22T04:12:12.151Z,21.02
2018-07-22T04:12:52.716Z,21.12
2018-07-22T04:13:33.290Z,21.15
2018-07-22T04:14:13.875Z,21.15
2018-07-22T04:14:54.448Z,21.09
2018-07-22T04:15:35.036Z,21.11
2018-07-22T04:16:15.596Z,21.11
2018-07-22T04:16:56.165Z,21.14
2018-07-22T04:17:36.720Z,21.11
2018-07-22T04:18:17.288Z,21.14
2018-07-22T04:18:57.852Z,21.15
2018-07-22T04:19:38.416Z,21.14
2018-07-22T04:20:18.978Z,21.11
2018-07-22T04:20:59.551Z,21.09
2018-07-22T04:21:40.126Z,21.07
2018-07-22T04:22:20.690Z,21.12
2018-07-22T04:23:01.259Z,21.11
2018-07-22T04:23:41.836Z,21.09
2018-07-22T04:24:22.387Z,21.14
2018-07-22T04:25:02.950Z,21.09
2018-07-22T04:25:43.516Z,21.17
2018-07-22T04:26:24.082Z,21.15
2018-07-22T04:27:04.662Z,21.2
2018-07-22T04:27:45.247Z,21.22
2018-07-22T04:28:25.815Z,21.14
2018-07-22T04:29:06.389Z,21.22
2018-07-22T04:29:46.942Z,21.24
2018-07-22T04:30:27.518Z,21.18
2018-07-22T04:31:08.085Z,21.18
2018-07-22T04:31:48.653Z,21.18
2018-07-22T04:32:29.221Z,21.15
2018-07-22T04:33:09.789Z,21.21
2018-07-22T04:33:50.369Z,21.2
2018-07-22T04:34:30.929Z,21.17
2018-07-22T04:35:11.503Z,21.17
2018-07-22T04:35:52.076Z,21.2
2018-07-22T04:36:32.645Z,21.2
2018-07-22T04:37:13.202Z,21.22
2018-07-22T04:37:53.765Z,21.21
2018-07-22T04:38:34.334Z,21.25
2018-07-22T04:39:14.903Z,21.25
2018-07-22T04:39:55.502Z,21.25
2018-07-22T04:40:36.073Z,21.24
2018-07-22T04:41:16.639Z,21.22
2018-07-22T04:41:57.210Z,21.27
2018-07-22T04:42:37.776Z,21.25
2018-07-22T04:43:18.333Z,21.24
2018-07-22T04:43:58.906Z,21.3
2018-07-22T04:44:39.463Z,21.32
2018-07-22T04:45:20.030Z,21.32
2018-07-22T04:46:00.610Z,21.37
2018-07-22T04:46:41.172Z,21.33
2018-07-22T04:47:21.741Z,21.39
2018-07-22T04:48:02.305Z,21.3
2018-07-22T04:48:42.869Z,21.42
2018-07-22T04:49:23.435Z,21.36
2018-07-22T04:50:03.997Z,21.29
2018-07-22T04:50:44.546Z,21.37
2018-07-22T04:51:25.133Z,21.33
2018-07-22T04:52:05.731Z,21.35
2018-07-22T04:52:46.272Z,21.42
2018-07-22T04:53:26.842Z,21.4
2018-07-22T04:54:07.410Z,21.43
2018-07-22T04:54:47.986Z,21.33
2018-07-22T04:55:28.560Z,21.46
2018-07-22T04:56:09.129Z,21.37
2018-07-22T04:56:49.684Z,21.4
2018-07-22T04:57:30.237Z,21.48
2018-07-22T04:58:10.811Z,21.43
2018-07-22T04:58:51.381Z,21.43
2018-07-22T04:59:31.951Z,21.43
2018-07-22T05:00:12.517Z,21.45
2018-07-22T05:00:53.082Z,21.43
2018-07-22T05:01:33.713Z,21.45
2018-07-22T05:02:14.285Z,21.5
2018-07-22T05:02:54.839Z,21.43
2018-07-22T05:03:35.391Z,21.51
2018-07-22T05:04:15.953Z,21.51
2018-07-22T05:04:56.511Z,21.5
2018-07-22T05:05:37.083Z,21.52
2018-07-22T05:06:17.675Z,21.45
2018-07-22T05:06:58.220Z,21.51
2018-07-22T05:07:38.797Z,21.46
2018-07-22T05:08:19.364Z,21.43
2018-07-22T05:08:59.945Z,21.54
2018-07-22T05:09:40.500Z,21.51
2018-07-22T05:10:21.063Z,21.52
2018-07-22T05:11:01.626Z,21.51
2018-07-22T05:11:42.199Z,21.57
2018-07-22T05:12:22.760Z,21.51
2018-07-22T05:13:03.321Z,21.54
2018-07-22T05:13:43.877Z,21.46
2018-07-22T05:14:24.459Z,21.62
2018-07-22T05:15:05.036Z,21.6
2018-07-22T05:15:45.606Z,21.64
2018-07-22T05:16:26.173Z,21.46
2018-07-22T05:17:06.728Z,21.67
2018-07-22T05:17:47.286Z,21.6
2018-07-22T05:18:27.848Z,21.61
2018-07-22T05:19:08.409Z,21.7
2018-07-22T05:19:48.987Z,21.6
2018-07-22T05:20:29.556Z,21.67
2018-07-22T05:21:10.117Z,21.67
2018-07-22T05:21:50.666Z,21.62
2018-07-22T05:22:31.250Z,21.62
2018-07-22T05:23:11.871Z,21.62
2018-07-22T05:23:52.428Z,21.7
2018-07-22T05:24:32.984Z,21.76
2018-07-22T05:25:13.572Z,21.75
2018-07-22T05:25:54.151Z,21.73
2018-07-22T05:26:34.742Z,21.77
2018-07-22T05:27:15.301Z,21.77
2018-07-22T05:27:55.862Z,21.77
2018-07-22T05:28:36.429Z,21.77
2018-07-22T05:29:16.991Z,21.83
2018-07-22T05:29:57.558Z,21.77
2018-07-22T05:30:38.127Z,21.8
2018-07-22T05:31:18.691Z,21.77
2018-07-22T05:31:59.244Z,21.76
2018-07-22T05:32:39.809Z,21.89
2018-07-22T05:33:20.372Z,21.85
2018-07-22T05:34:00.922Z,21.85
2018-07-22T05:34:41.502Z,21.83
2018-07-22T05:35:22.072Z,21.8
2018-07-22T05:36:02.636Z,21.85
2018-07-22T05:36:43.189Z,21.8
2018-07-22T05:37:23.742Z,21.79
2018-07-22T05:38:04.302Z,21.77
2018-07-22T05:38:44.868Z,21.88
2018-07-22T05:39:25.426Z,21.76
2018-07-22T05:40:05.995Z,21.82
2018-07-22T05:40:46.566Z,21.79
2018-07-22T05:41:27.136Z,21.83
2018-07-22T05:42:07.782Z,21.92
2018-07-22T05:42:48.268Z,21.77
2018-07-22T05:43:28.827Z,21.89
2018-07-22T05:44:09.381Z,21.8
2018-07-22T05:44:49.968Z,21.88
2018-07-22T05:45:30.539Z,21.8
2018-07-22T05:46:11.092Z,21.82
2018-07-22T05:46:51.654Z,21.8
2018-07-22T05:47:32.225Z,21.83
2018-07-22T05:48:12.781Z,21.82
2018-07-22T05:48:53.374Z,21.92
2018-07-22T05:49:33.887Z,21.89
2018-07-22T05:50:14.484Z,21.91
2018-07-22T05:50:55.038Z,21.89
2018-07-22T05:51:35.609Z,21.93
2018-07-22T05:52:16.172Z,21.92
2018-07-22T05:52:56.740Z,21.93
2018-07-22T05:53:37.317Z,22
2018-07-22T05:54:17.897Z,21.99
2018-07-22T05:54:58.466Z,22.02
2018-07-22T05:55:39.026Z,22.04
2018-07-22T05:56:19.597Z,22.07
2018-07-22T05:57:00.161Z,22.02
2018-07-22T05:57:40.741Z,22.06
2018-07-22T05:58:21.315Z,22.04
2018-07-22T05:59:01.883Z,22.04
2018-07-22T05:59:42.454Z,22.08
2018-07-22T06:00:23.005Z,22.11
2018-07-22T06:01:03.571Z,22.04
2018-07-22T06:01:44.131Z,22.14
2018-07-22T06:02:24.707Z,22.1
2018-07-22T06:03:05.313Z,22.15
2018-07-22T06:03:45.829Z,22.11
2018-07-22T06:04:26.401Z,22.18
2018-07-22T06:05:06.968Z,22.15
2018-07-22T06:05:47.532Z,22.18
2018-07-22T06:06:28.095Z,22.17
2018-07-22T06:07:08.672Z,22.23
2018-07-22T06:07:49.254Z,22.17
2018-07-22T06:08:29.825Z,22.23
2018-07-22T06:09:10.393Z,22.3
2018-07-22T06:09:50.983Z,22.22
2018-07-22T06:10:31.541Z,22.2
2018-07-22T06:11:12.105Z,22.26
2018-07-22T06:11:52.757Z,22.36
2018-07-22T06:12:33.245Z,22.38
2018-07-22T06:13:13.811Z,22.3
2018-07-22T06:13:54.384Z,22.35
2018-07-22T06:14:34.959Z,22.41
2018-07-22T06:15:15.561Z,22.36
2018-07-22T06:15:56.141Z,22.32
2018-07-22T06:16:36.763Z,22.38
2018-07-22T06:17:17.275Z,22.33
2018-07-22T06:17:57.863Z,22.36
2018-07-22T06:18:38.434Z,22.39
2018-07-22T06:19:19.003Z,22.45
2018-07-22T06:19:59.561Z,22.41
2018-07-22T06:20:40.133Z,22.41
2018-07-22T06:21:20.703Z,22.43
2018-07-22T06:22:01.278Z,22.47
2018-07-22T06:22:41.846Z,22.51
2018-07-22T06:23:22.440Z,22.44
2018-07-22T06:24:02.974Z,22.45
2018-07-22T06:24:43.536Z,22.48
2018-07-22T06:25:24.098Z,22.44
2018-07-22T06:26:04.675Z,22.51
2018-07-22T06:26:45.237Z,22.5
2018-07-22T06:27:25.800Z,22.5
2018-07-22T06:28:06.367Z,22.59
2018-07-22T06:28:46.928Z,22.59
2018-07-22T06:29:27.495Z,22.54
2018-07-22T06:30:08.064Z,22.57
2018-07-22T06:30:48.640Z,22.59
2018-07-22T06:31:29.228Z,22.55
2018-07-22T06:32:09.799Z,22.55
2018-07-22T06:32:50.367Z,22.6
2018-07-22T06:33:30.942Z,22.68
2018-07-22T06:34:11.513Z,22.63
2018-07-22T06:34:52.093Z,22.62
2018-07-22T06:35:32.657Z,22.7
2018-07-22T06:36:13.219Z,22.68
2018-07-22T06:36:53.778Z,22.59
2018-07-22T06:37:34.359Z,22.62
2018-07-22T06:38:14.924Z,22.65
2018-07-22T06:38:55.492Z,22.8
2018-07-22T06:39:36.056Z,22.81
2018-07-22T06:40:16.617Z,22.83
2018-07-22T06:40:57.177Z,22.68
2018-07-22T06:41:37.746Z,22.69
2018-07-22T06:42:18.317Z,22.75
2018-07-22T06:42:58.885Z,22.72
2018-07-22T06:43:39.451Z,22.81
2018-07-22T06:44:20.010Z,22.78
2018-07-22T06:45:00.581Z,22.85
2018-07-22T06:45:41.153Z,22.83
2018-07-22T06:46:21.728Z,22.85
2018-07-22T06:47:02.289Z,22.83
2018-07-22T06:47:42.844Z,22.84
2018-07-22T06:48:23.409Z,22.85
2018-07-22T06:49:03.979Z,22.8
2018-07-22T06:49:44.545Z,22.91
2018-07-22T06:50:25.157Z,22.91
2018-07-22T06:51:05.702Z,22.9
2018-07-22T06:51:46.279Z,22.88
2018-07-22T06:52:26.851Z,23.02
2018-07-22T06:53:07.401Z,22.98
2018-07-22T06:53:48.213Z,23
2018-07-22T06:54:28.715Z,23
2018-07-22T06:55:09.382Z,23.05
2018-07-22T06:55:50.226Z,23.05
2018-07-22T06:56:30.863Z,23.09
2018-07-22T06:57:11.527Z,23.21
2018-07-22T06:57:52.171Z,23.23
2018-07-22T06:58:32.716Z,23.2
2018-07-22T06:59:13.786Z,23.24
2018-07-22T06:59:54.340Z,23.39
2018-07-22T07:00:35.215Z,23.36
2018-07-22T07:01:15.867Z,23.32
2018-07-22T07:01:56.498Z,23.37
2018-07-22T07:02:37.071Z,23.48
2018-07-22T07:03:17.658Z,23.47
2018-07-22T07:03:58.250Z,23.46
2018-07-22T07:04:38.816Z,23.48
2018-07-22T07:05:19.445Z,23.47
2018-07-22T07:05:59.977Z,23.61
2018-07-22T07:06:40.606Z,23.59
2018-07-22T07:07:21.279Z,23.58
2018-07-22T07:08:01.834Z,23.58
2018-07-22T07:08:42.527Z,23.69
2018-07-22T07:09:23.095Z,23.69
2018-07-22T07:10:03.665Z,23.63
2018-07-22T07:10:44.360Z,23.62
2018-07-22T07:11:24.961Z,23.62
2018-07-22T07:12:05.522Z,23.62
2018-07-22T07:12:46.094Z,23.74
2018-07-22T07:13:26.666Z,23.62
2018-07-22T07:14:07.251Z,23.62
2018-07-22T07:14:47.828Z,23.65
2018-07-22T07:15:28.385Z,23.74
2018-07-22T07:16:09.273Z,23.73
2018-07-22T07:16:49.851Z,23.73
2018-07-22T07:17:30.416Z,23.76
2018-07-22T07:18:11.002Z,23.74
2018-07-22T07:18:51.548Z,23.78
2018-07-22T07:19:32.112Z,23.81
2018-07-22T07:20:12.669Z,23.83
2018-07-22T07:20:53.355Z,23.73
2018-07-22T07:21:33.872Z,23.8
2018-07-22T07:22:14.441Z,23.8
2018-07-22T07:22:55.015Z,23.91
2018-07-22T07:23:35.602Z,23.87
2018-07-22T07:24:16.169Z,23.88
2018-07-22T07:24:56.740Z,23.83
2018-07-22T07:25:37.307Z,23.87
2018-07-22T07:26:17.866Z,23.93
2018-07-22T07:26:58.429Z,23.95
2018-07-22T07:27:39.003Z,23.86
2018-07-22T07:28:19.578Z,23.8
2018-07-22T07:29:00.140Z,23.96
2018-07-22T07:29:40.718Z,23.93
2018-07-22T07:30:21.337Z,23.95
2018-07-22T07:31:01.850Z,23.92
2018-07-22T07:31:42.407Z,23.98
2018-07-22T07:32:22.986Z,24.03
2018-07-22T07:33:03.565Z,24.03
2018-07-22T07:33:44.130Z,24.14
2018-07-22T07:34:24.715Z,24.16
2018-07-22T07:35:05.265Z,24.2
2018-07-22T07:35:45.819Z,24.28
2018-07-22T07:36:26.396Z,24.17
2018-07-22T07:37:06.963Z,24.33
2018-07-22T07:37:47.523Z,24.4
2018-07-22T07:38:28.095Z,24.35
2018-07-22T07:39:08.676Z,24.39
2018-07-22T07:39:49.250Z,24.38
2018-07-22T07:40:29.826Z,24.4
2018-07-22T07:41:10.401Z,24.35
2018-07-22T07:41:50.970Z,24.24
2018-07-22T07:42:31.537Z,24.3
2018-07-22T07:43:12.096Z,24.29
2018-07-22T07:43:52.660Z,24.42
2018-07-22T07:44:33.228Z,24.55
2018-07-22T07:45:13.796Z,24.61
2018-07-22T07:45:54.382Z,24.6
2018-07-22T07:46:34.974Z,24.73
2018-07-22T07:47:15.573Z,24.86
2018-07-22T07:47:56.166Z,24.85
2018-07-22T07:48:36.744Z,24.86
2018-07-22T07:49:17.317Z,24.86
2018-07-22T07:49:57.890Z,24.95
2018-07-22T07:50:38.465Z,24.95
2018-07-22T07:51:19.035Z,25.07
2018-07-22T07:51:59.612Z,25.07
2018-07-22T07:52:40.192Z,25.01
2018-07-22T07:53:20.841Z,25.13
2018-07-22T07:54:01.410Z,25.07
2018-07-22T07:54:41.981Z,25.11
2018-07-22T07:55:22.555Z,25.18
2018-07-22T07:56:03.144Z,25.14
2018-07-22T07:56:43.717Z,25.13
2018-07-22T07:57:24.288Z,25.14
2018-07-22T07:58:04.856Z,25.11
2018-07-22T07:58:45.440Z,25.14
2018-07-22T07:59:26.022Z,25.1
2018-07-22T08:00:06.592Z,25.07
2018-07-22T08:00:47.159Z,25.1
2018-07-22T08:01:27.729Z,25.1
2018-07-22T08:02:08.311Z,25.1
2018-07-22T08:02:48.869Z,25.07
2018-07-22T08:03:29.477Z,25.06
2018-07-22T08:04:10.054Z,25.07
2018-07-22T08:04:50.627Z,25.06
2018-07-22T08:05:31.248Z,24.98
2018-07-22T08:06:11.767Z,25.07
2018-07-22T08:06:52.347Z,25.04
2018-07-22T08:07:32.925Z,25.04
2018-07-22T08:08:13.503Z,25.03
2018-07-22T08:08:54.065Z,25.06
2018-07-22T08:09:34.630Z,25.03
2018-07-22T08:10:15.204Z,25.06
2018-07-22T08:10:55.761Z,25.07
2018-07-22T08:11:36.389Z,25.06
2018-07-22T08:12:16.891Z,24.89
2018-07-22T08:12:57.453Z,25.13
2018-07-22T08:13:38.030Z,25.01
2018-07-22T08:14:18.604Z,25.06
2018-07-22T08:14:59.179Z,24.96
2018-07-22T08:15:39.768Z,25.07
2018-07-22T08:16:20.333Z,25.06
2018-07-22T08:17:00.898Z,25.1
2018-07-22T08:17:41.464Z,25.06
2018-07-22T08:18:22.051Z,25.11
2018-07-22T08:19:02.678Z,25.13
2018-07-22T08:19:43.189Z,25.1
2018-07-22T08:20:23.762Z,25.13
2018-07-22T08:21:04.336Z,25.17
2018-07-22T08:21:45.056Z,25.13
2018-07-22T08:22:25.490Z,25.21
2018-07-22T08:23:06.069Z,25.18
2018-07-22T08:23:46.645Z,25.22
2018-07-22T08:24:27.220Z,25.23
2018-07-22T08:25:07.790Z,25.38
2018-07-22T08:25:48.342Z,25.32
2018-07-22T08:26:28.931Z,25.32
2018-07-22T08:27:09.503Z,25.32
2018-07-22T08:27:50.082Z,25.31
2018-07-22T08:28:30.651Z,25.33
2018-07-22T08:29:11.224Z,25.36
2018-07-22T08:29:51.828Z,25.36
2018-07-22T08:30:32.399Z,25.44
2018-07-22T08:31:12.956Z,25.4
2018-07-22T08:31:53.531Z,25.5
2018-07-22T08:32:34.093Z,25.48
2018-07-22T08:33:14.664Z,25.54
2018-07-22T08:33:55.237Z,25.68
2018-07-22T08:34:35.813Z,25.65
2018-07-22T08:35:16.386Z,25.72
2018-07-22T08:35:56.964Z,25.68
2018-07-22T08:36:37.545Z,25.85
2018-07-22T08:37:18.111Z,25.91
2018-07-22T08:37:58.672Z,25.93
2018-07-22T08:38:39.248Z,25.96
2018-07-22T08:39:19.822Z,26.02
2018-07-22T08:40:00.387Z,26.1
2018-07-22T08:40:40.957Z,26.07
2018-07-22T08:41:21.679Z,26.15
2018-07-22T08:42:02.176Z,26.19
2018-07-22T08:42:42.749Z,26.23
2018-07-22T08:43:23.331Z,26.13
2018-07-22T08:44:03.916Z,26.13
2018-07-22T08:44:44.492Z,26.23
2018-07-22T08:45:25.086Z,26.26